createdAt,value
2017-11-08T00:00:59.933Z,6.58
2017-11-08T00:02:21.771Z,6.62
2017-11-08T00:03:43.626Z,6.55
2017-11-08T00:05:05.795Z,6.62
2017-11-08T00:06:28.424Z,6.69
2017-11-08T00:07:50.289Z,6.58
2017-11-08T00:09:12.142Z,6.61
2017-11-08T00:10:34.301Z,6.62
2017-11-08T00:11:56.468Z,6.66
2017-11-08T00:13:18.305Z,6.67
2017-11-08T00:14:40.516Z,6.69
2017-11-08T00:16:02.684Z,6.71
2017-11-08T00:17:24.525Z,6.66
2017-11-08T00:18:47.198Z,6.74
2017-11-08T00:20:09.064Z,6.71
2017-11-08T00:21:30.235Z,6.71
2017-11-08T00:22:52.735Z,6.84
2017-11-08T00:24:14.903Z,6.87
2017-11-08T00:25:37.411Z,6.73
2017-11-08T00:26:59.586Z,6.74
2017-11-08T00:28:21.770Z,6.77
2017-11-08T00:29:43.975Z,6.77
2017-11-08T00:31:05.803Z,6.8
2017-11-08T00:32:27.990Z,6.84
2017-11-08T00:33:49.893Z,6.85
2017-11-08T00:35:12.059Z,6.74
2017-11-08T00:36:34.575Z,6.85
2017-11-08T00:37:57.071Z,6.87
2017-11-08T00:39:18.914Z,6.87
2017-11-08T00:40:40.799Z,6.88
2017-11-08T00:42:03.404Z,6.94
2017-11-08T00:43:25.256Z,6.89
2017-11-08T00:44:47.769Z,6.89
2017-11-08T00:46:10.412Z,6.88
2017-11-08T00:47:32.595Z,6.87
2017-11-08T00:48:54.116Z,6.91
2017-11-08T00:50:15.994Z,6.89
2017-11-08T00:51:38.631Z,6.92
2017-11-08T00:53:00.817Z,6.89
2017-11-08T00:54:23.364Z,6.91
2017-11-08T00:55:45.863Z,6.89
2017-11-08T00:57:07.757Z,6.88
2017-11-08T00:58:29.980Z,6.91
2017-11-08T00:59:52.498Z,6.89
2017-11-08T01:01:14.712Z,6.94
2017-11-08T01:02:36.552Z,6.91
2017-11-08T01:03:58.403Z,6.89
2017-11-08T01:05:20.560Z,6.95
2017-11-08T01:06:42.059Z,6.99
2017-11-08T01:08:03.911Z,6.91
2017-11-08T01:09:25.758Z,6.97
2017-11-08T01:10:47.263Z,6.97
2017-11-08T01:12:09.433Z,7.02
2017-11-08T01:13:31.591Z,6.92
2017-11-08T01:14:53.413Z,6.99
2017-11-08T01:16:15.285Z,7.02
2017-11-08T01:17:36.794Z,6.87
2017-11-08T01:18:58.648Z,6.99
2017-11-08T01:20:20.153Z,6.99
2017-11-08T01:21:42.714Z,7.03
2017-11-08T01:23:04.276Z,7.06
2017-11-08T01:24:26.451Z,7.02
2017-11-08T01:25:48.279Z,7.06
2017-11-08T01:27:10.817Z,6.97
2017-11-08T01:28:32.684Z,6.95
2017-11-08T01:29:54.867Z,6.88
2017-11-08T01:31:17.159Z,6.94
2017-11-08T01:32:39.666Z,6.92
2017-11-08T01:34:02.093Z,6.98
2017-11-08T01:35:23.927Z,6.92
2017-11-08T01:36:46.157Z,6.99
2017-11-08T01:38:08.136Z,6.85
2017-11-08T01:39:30.295Z,6.91
2017-11-08T01:40:52.474Z,6.98
2017-11-08T01:42:14.316Z,6.97
2017-11-08T01:43:36.831Z,6.99
2017-11-08T01:44:59.037Z,6.91
2017-11-08T01:46:20.882Z,6.94
2017-11-08T01:47:42.396Z,6.89
2017-11-08T01:49:04.664Z,6.95
2017-11-08T01:50:26.496Z,6.97
2017-11-08T01:51:48.986Z,6.97
2017-11-08T01:53:11.247Z,6.97
2017-11-08T01:54:33.073Z,6.97
2017-11-08T01:55:55.034Z,6.98
2017-11-08T01:57:17.203Z,6.94
2017-11-08T01:58:38.753Z,6.97
2017-11-08T02:00:00.901Z,6.95
2017-11-08T02:01:22.753Z,6.85
2017-11-08T02:02:45.000Z,6.95
2017-11-08T02:04:07.176Z,7.03
2017-11-08T02:05:29.400Z,6.94
2017-11-08T02:06:51.056Z,6.88
2017-11-08T02:08:12.570Z,6.99
2017-11-08T02:09:34.738Z,7.06
2017-11-08T02:10:56.576Z,7.05
2017-11-08T02:12:19.015Z,6.99
2017-11-08T02:13:40.538Z,7.03
2017-11-08T02:15:02.378Z,6.99
2017-11-08T02:16:23.976Z,7.05
2017-11-08T02:17:45.809Z,6.98
2017-11-08T02:19:07.981Z,7.03
2017-11-08T02:20:29.835Z,7.16
2017-11-08T02:21:52.171Z,7.03
2017-11-08T02:23:13.792Z,7.02
2017-11-08T02:24:35.684Z,7.03
2017-11-08T02:25:57.557Z,6.99
2017-11-08T02:27:19.415Z,7.1
2017-11-08T02:28:41.173Z,7.12
2017-11-08T02:30:03.353Z,7.2
2017-11-08T02:31:25.635Z,7.13
2017-11-08T02:32:46.834Z,7.15
2017-11-08T02:34:09.279Z,7.12
2017-11-08T02:35:30.949Z,7.15
2017-11-08T02:36:53.123Z,7.15
2017-11-08T02:38:15.339Z,7.09
2017-11-08T02:39:37.800Z,7.15
2017-11-08T02:40:59.667Z,7.13
2017-11-08T02:42:21.918Z,7.07
2017-11-08T02:43:43.432Z,7.13
2017-11-08T02:45:05.275Z,7.12
2017-11-08T02:46:26.453Z,7.13
2017-11-08T02:47:48.611Z,7.16
2017-11-08T02:49:10.447Z,7.16
2017-11-08T02:50:32.292Z,7.21
2017-11-08T02:51:54.134Z,7.1
2017-11-08T02:53:16.301Z,7.16
2017-11-08T02:54:38.564Z,7.25
2017-11-08T02:55:59.706Z,7.25
2017-11-08T02:57:21.881Z,7.25
2017-11-08T02:58:43.741Z,7.27
2017-11-08T03:00:05.974Z,7.32
2017-11-08T03:01:28.155Z,7.28
2017-11-08T03:02:50.355Z,7.27
2017-11-08T03:04:12.656Z,7.25
2017-11-08T03:05:34.495Z,7.23
2017-11-08T03:06:56.844Z,7.31
2017-11-08T03:08:18.682Z,7.28
2017-11-08T03:09:41.265Z,7.25
2017-11-08T03:11:03.777Z,7.42
2017-11-08T03:12:25.992Z,7.37
2017-11-08T03:13:47.852Z,7.35
2017-11-08T03:15:09.704Z,7.34
2017-11-08T03:16:31.544Z,7.45
2017-11-08T03:17:54.055Z,7.34
2017-11-08T03:19:15.895Z,7.39
2017-11-08T03:20:38.381Z,7.37
2017-11-08T03:22:00.220Z,7.37
2017-11-08T03:23:22.054Z,7.37
2017-11-08T03:24:44.236Z,7.4
2017-11-08T03:26:06.224Z,7.45
2017-11-08T03:27:28.074Z,7.4
2017-11-08T03:28:50.012Z,7.34
2017-11-08T03:30:12.507Z,7.37
2017-11-08T03:31:34.733Z,7.43
2017-11-08T03:32:56.585Z,7.43
2017-11-08T03:34:18.744Z,7.39
2017-11-08T03:35:40.593Z,7.43
2017-11-08T03:37:01.864Z,7.37
2017-11-08T03:38:24.362Z,7.43
2017-11-08T03:39:46.249Z,7.43
2017-11-08T03:41:08.086Z,7.43
2017-11-08T03:42:30.387Z,7.42
2017-11-08T03:43:51.913Z,7.43
2017-11-08T03:45:14.678Z,7.46
2017-11-08T03:46:36.553Z,7.37
2017-11-08T03:47:58.417Z,7.35
2017-11-08T03:49:20.581Z,7.43
2017-11-08T03:50:42.417Z,7.45
2017-11-08T03:52:04.344Z,7.45
2017-11-08T03:53:26.607Z,7.46
2017-11-08T03:54:48.103Z,7.39
2017-11-08T03:56:10.625Z,7.34
2017-11-08T03:57:32.463Z,7.4
2017-11-08T03:58:54.372Z,7.35
2017-11-08T04:00:16.543Z,7.34
2017-11-08T04:01:38.393Z,7.37
2017-11-08T04:03:00.914Z,7.35
2017-11-08T04:04:22.754Z,7.35
2017-11-08T04:05:44.926Z,7.37
2017-11-08T04:07:06.770Z,7.4
2017-11-08T04:08:28.283Z,7.35
2017-11-08T04:09:50.531Z,7.31
2017-11-08T04:11:12.055Z,7.35
2017-11-08T04:12:33.891Z,7.42
2017-11-08T04:13:55.181Z,7.4
2017-11-08T04:15:17.022Z,7.39
2017-11-08T04:16:38.867Z,7.37
2017-11-08T04:18:01.389Z,7.37
2017-11-08T04:19:22.886Z,7.49
2017-11-08T04:20:45.077Z,7.49
2017-11-08T04:22:06.934Z,7.55
2017-11-08T04:23:28.753Z,7.49
2017-11-08T04:24:50.635Z,7.55
2017-11-08T04:26:13.134Z,7.5
2017-11-08T04:27:34.985Z,7.53
2017-11-08T04:28:56.821Z,7.55
2017-11-08T04:30:18.993Z,7.57
2017-11-08T04:31:40.510Z,7.57
2017-11-08T04:33:02.371Z,7.53
2017-11-08T04:34:24.470Z,7.53
2017-11-08T04:35:46.722Z,7.52
2017-11-08T04:37:08.677Z,7.57
2017-11-08T04:38:30.955Z,7.53
2017-11-08T04:39:53.116Z,7.61
2017-11-08T04:41:15.647Z,7.53
2017-11-08T04:42:37.812Z,7.6
2017-11-08T04:43:59.314Z,7.43
2017-11-08T04:45:21.415Z,7.42
2017-11-08T04:46:43.255Z,7.5
2017-11-08T04:48:04.768Z,7.52
2017-11-08T04:49:26.624Z,7.45
2017-11-08T04:50:48.464Z,7.45
2017-11-08T04:52:10.976Z,7.34
2017-11-08T04:53:32.480Z,7.45
2017-11-08T04:54:53.972Z,7.42
2017-11-08T04:56:16.448Z,7.42
2017-11-08T04:57:38.645Z,7.45
2017-11-08T04:59:00.555Z,7.43
2017-11-08T05:00:22.426Z,7.37
2017-11-08T05:01:44.926Z,7.43
2017-11-08T05:03:07.475Z,7.43
2017-11-08T05:04:28.976Z,7.43
2017-11-08T05:05:50.804Z,7.48
2017-11-08T05:07:12.640Z,7.43
2017-11-08T05:08:34.808Z,7.46
2017-11-08T05:09:56.649Z,7.46
2017-11-08T05:11:18.497Z,7.46
2017-11-08T05:12:40.003Z,7.45
2017-11-08T05:14:02.183Z,7.42
2017-11-08T05:15:24.696Z,7.46
2017-11-08T05:16:46.230Z,7.53
2017-11-08T05:18:08.654Z,7.5
2017-11-08T05:19:30.825Z,7.46
2017-11-08T05:20:52.316Z,7.43
2017-11-08T05:22:14.168Z,7.53
2017-11-08T05:23:36.736Z,7.5
2017-11-08T05:24:58.584Z,7.5
2017-11-08T05:26:20.766Z,7.43
2017-11-08T05:27:42.606Z,7.46
2017-11-08T05:29:04.110Z,7.45
2017-11-08T05:30:25.749Z,7.49
2017-11-08T05:31:47.963Z,7.49
2017-11-08T05:33:10.483Z,7.58
2017-11-08T05:34:32.334Z,7.48
2017-11-08T05:35:54.511Z,7.49
2017-11-08T05:37:16.732Z,7.53
2017-11-08T05:38:38.568Z,7.53
2017-11-08T05:40:00.436Z,7.52
2017-11-08T05:41:22.616Z,7.61
2017-11-08T05:42:45.142Z,7.61
2017-11-08T05:44:07.365Z,7.58
2017-11-08T05:45:29.545Z,7.57
2017-11-08T05:46:52.054Z,7.61
2017-11-08T05:48:13.232Z,7.64
2017-11-08T05:49:35.746Z,7.61
2017-11-08T05:50:58.308Z,7.61
2017-11-08T05:52:20.811Z,7.57
2017-11-08T05:53:42.665Z,7.64
2017-11-08T05:55:03.840Z,7.57
2017-11-08T05:56:26.353Z,7.63
2017-11-08T05:57:48.205Z,7.69
2017-11-08T05:59:10.465Z,7.64
2017-11-08T06:00:32.423Z,7.69
2017-11-08T06:01:54.594Z,7.68
2017-11-08T06:03:16.773Z,7.67
2017-11-08T06:04:38.287Z,7.68
2017-11-08T06:06:00.125Z,7.57
2017-11-08T06:07:21.636Z,7.63
2017-11-08T06:08:43.569Z,7.6
2017-11-08T06:10:05.824Z,7.68
2017-11-08T06:11:27.398Z,7.6
2017-11-08T06:12:48.945Z,7.67
2017-11-08T06:14:11.126Z,7.68
2017-11-08T06:15:33.321Z,7.58
2017-11-08T06:16:55.174Z,7.67
2017-11-08T06:18:17.047Z,7.64
2017-11-08T06:19:39.236Z,7.69
2017-11-08T06:21:01.085Z,7.68
2017-11-08T06:22:23.256Z,7.79
2017-11-08T06:23:45.146Z,7.67
2017-11-08T06:25:07.327Z,7.67
2017-11-08T06:26:29.495Z,7.8
2017-11-08T06:27:52.135Z,7.71
2017-11-08T06:29:14.029Z,7.68
2017-11-08T06:30:35.896Z,7.77
2017-11-08T06:31:57.743Z,7.75
2017-11-08T06:33:19.994Z,7.68
2017-11-08T06:34:41.924Z,7.67
2017-11-08T06:36:03.767Z,7.71
2017-11-08T06:37:25.619Z,7.67
2017-11-08T06:38:47.785Z,7.75
2017-11-08T06:40:09.654Z,7.74
2017-11-08T06:41:32.228Z,7.74
2017-11-08T06:42:54.077Z,7.68
2017-11-08T06:44:16.565Z,7.64
2017-11-08T06:45:38.499Z,7.75
2017-11-08T06:47:00.683Z,7.63
2017-11-08T06:48:22.524Z,7.63
2017-11-08T06:49:44.804Z,7.64
2017-11-08T06:51:07.245Z,7.63
2017-11-08T06:52:29.036Z,7.71
2017-11-08T06:53:51.294Z,7.69
2017-11-08T06:55:13.149Z,7.71
2017-11-08T06:56:35.351Z,7.69
2017-11-08T06:57:57.873Z,7.61
2017-11-08T06:59:20.074Z,7.63
2017-11-08T07:00:41.935Z,7.6
2017-11-08T07:02:04.702Z,7.57
2017-11-08T07:03:26.885Z,7.6
2017-11-08T07:04:48.724Z,7.58
2017-11-08T07:06:10.619Z,7.58
2017-11-08T07:07:33.115Z,7.72
2017-11-08T07:08:55.364Z,7.71
2017-11-08T07:10:17.565Z,7.71
2017-11-08T07:11:39.754Z,7.69
2017-11-08T07:13:02.315Z,7.77
2017-11-08T07:14:23.877Z,7.82
2017-11-08T07:15:45.384Z,7.85
2017-11-08T07:17:07.215Z,7.83
2017-11-08T07:18:29.313Z,7.83
2017-11-08T07:19:51.885Z,7.85
2017-11-08T07:21:14.218Z,7.83
2017-11-08T07:22:36.045Z,7.86
2017-11-08T07:23:57.543Z,7.79
2017-11-08T07:25:19.381Z,7.77
2017-11-08T07:26:41.573Z,7.72
2017-11-08T07:28:03.095Z,7.87
2017-11-08T07:29:25.359Z,7.92
2017-11-08T07:30:47.216Z,7.93
2017-11-08T07:32:09.392Z,7.89
2017-11-08T07:33:30.906Z,8
2017-11-08T07:34:53.082Z,8.08
2017-11-08T07:36:15.291Z,7.97
2017-11-08T07:37:37.541Z,8.11
2017-11-08T07:39:00.115Z,8.23
2017-11-08T07:40:21.963Z,8.19
2017-11-08T07:41:44.178Z,8.19
2017-11-08T07:43:06.356Z,8.2
2017-11-08T07:44:28.562Z,8.3
2017-11-08T07:45:51.068Z,8.37
2017-11-08T07:47:12.884Z,8.43
2017-11-08T07:48:33.752Z,8.44
2017-11-08T07:49:55.645Z,8.36
2017-11-08T07:51:17.651Z,8.41
2017-11-08T07:52:39.534Z,8.47
2017-11-08T07:54:01.748Z,8.55
2017-11-08T07:55:23.672Z,8.5
2017-11-08T07:56:46.184Z,8.44
2017-11-08T07:58:08.536Z,8.41
2017-11-08T07:59:30.400Z,8.53
2017-11-08T08:00:52.570Z,8.48
2017-11-08T08:02:15.105Z,8.55
2017-11-08T08:03:37.450Z,8.45
2017-11-08T08:04:59.636Z,8.5
2017-11-08T08:06:21.884Z,8.48
2017-11-08T08:07:44.421Z,8.58
2017-11-08T08:09:05.920Z,8.7
2017-11-08T08:10:27.127Z,8.73
2017-11-08T08:11:49.645Z,8.74
2017-11-08T08:13:11.583Z,8.71
2017-11-08T08:14:33.753Z,8.74
2017-11-08T08:15:55.616Z,8.76
2017-11-08T08:17:16.800Z,8.74
2017-11-08T08:18:38.895Z,8.73
2017-11-08T08:20:01.457Z,8.98
2017-11-08T08:21:23.666Z,8.86
2017-11-08T08:22:45.564Z,8.84
2017-11-08T08:24:07.452Z,8.66
2017-11-08T08:25:29.803Z,8.68
2017-11-08T08:26:51.675Z,8.74
2017-11-08T08:28:14.163Z,8.74
2017-11-08T08:29:36.394Z,8.74
2017-11-08T08:30:58.254Z,8.81
2017-11-08T08:32:20.445Z,8.79
2017-11-08T08:33:42.357Z,8.83
2017-11-08T08:35:04.578Z,8.79
2017-11-08T08:36:26.142Z,8.76
2017-11-08T08:37:47.633Z,8.74
2017-11-08T08:39:09.827Z,8.87
2017-11-08T08:40:32.245Z,8.89
2017-11-08T08:41:54.538Z,8.83
2017-11-08T08:43:15.719Z,8.86
2017-11-08T08:44:37.627Z,9.04
2017-11-08T08:45:59.135Z,9.02
2017-11-08T08:47:20.645Z,9.15
2017-11-08T08:48:43.147Z,9.04
2017-11-08T08:50:05.014Z,9.1
2017-11-08T08:51:27.247Z,9.02
2017-11-08T08:52:48.766Z,9.13
2017-11-08T08:54:11.282Z,9.1
2017-11-08T08:55:33.115Z,9.04
2017-11-08T08:56:54.996Z,9.01
2017-11-08T08:58:16.533Z,9.11
2017-11-08T08:59:38.355Z,9.11
2017-11-08T09:01:00.194Z,9.1
2017-11-08T09:02:22.134Z,9.01
2017-11-08T09:03:44.645Z,9.02
2017-11-08T09:05:05.828Z,9.02
2017-11-08T09:06:27.407Z,8.98
2017-11-08T09:07:49.567Z,8.96
2017-11-08T09:09:11.106Z,8.98
2017-11-08T09:10:32.627Z,9.01
2017-11-08T09:11:54.879Z,9.05
2017-11-08T09:13:17.055Z,9.04
2017-11-08T09:14:38.891Z,9.15
2017-11-08T09:16:01.065Z,9.1
2017-11-08T09:17:23.620Z,9.21
2017-11-08T09:18:45.157Z,9.31
2017-11-08T09:20:07.006Z,9.43
2017-11-08T09:21:28.857Z,9.54
2017-11-08T09:22:51.422Z,9.6
2017-11-08T09:24:13.616Z,9.6
2017-11-08T09:25:35.844Z,9.58
2017-11-08T09:26:58.100Z,9.58
2017-11-08T09:28:19.940Z,9.57
2017-11-08T09:29:42.244Z,9.56
2017-11-08T09:31:04.484Z,9.58
2017-11-08T09:32:26.383Z,9.58
2017-11-08T09:33:48.923Z,9.54
2017-11-08T09:35:11.523Z,9.66
2017-11-08T09:36:34.076Z,9.68
2017-11-08T09:37:56.326Z,9.69
2017-11-08T09:39:18.569Z,9.81
2017-11-08T09:40:40.432Z,9.84
2017-11-08T09:42:02.631Z,10.02
2017-11-08T09:43:24.857Z,9.91
2017-11-08T09:44:47.097Z,9.91
2017-11-08T09:46:08.980Z,9.97
2017-11-08T09:47:30.839Z,9.99
2017-11-08T09:48:52.683Z,10.17
2017-11-08T09:50:14.194Z,10.26
2017-11-08T09:51:37.005Z,10.25
2017-11-08T09:52:58.850Z,10.22
2017-11-08T09:54:21.045Z,10.42
2017-11-08T09:55:43.213Z,10.44
2017-11-08T09:57:05.695Z,10.41
2017-11-08T09:58:27.865Z,10.23
2017-11-08T09:59:50.034Z,10.23
2017-11-08T10:01:11.971Z,10.36
2017-11-08T10:02:34.827Z,10.41
2017-11-08T10:03:56.717Z,10.59
2017-11-08T10:05:18.563Z,10.68
2017-11-08T10:06:41.080Z,10.68
2017-11-08T10:08:03.322Z,10.68
2017-11-08T10:09:25.734Z,10.81
2017-11-08T10:10:48.018Z,10.64
2017-11-08T10:12:10.273Z,10.74
2017-11-08T10:13:32.557Z,11.03
2017-11-08T10:14:55.134Z,10.94
2017-11-08T10:16:17.428Z,10.85
2017-11-08T10:17:39.616Z,10.97
2017-11-08T10:19:02.269Z,10.71
2017-11-08T10:20:24.135Z,10.68
2017-11-08T10:21:46.654Z,10.88
2017-11-08T10:23:08.538Z,10.88
2017-11-08T10:24:31.153Z,10.88
2017-11-08T10:25:53.453Z,10.67
2017-11-08T10:27:14.975Z,10.66
2017-11-08T10:28:37.485Z,10.76
2017-11-08T10:30:00.032Z,10.74
2017-11-08T10:31:22.274Z,10.76
2017-11-08T10:32:44.790Z,10.81
2017-11-08T10:34:07.429Z,10.61
2017-11-08T10:35:29.594Z,10.55
2017-11-08T10:36:51.788Z,10.68
2017-11-08T10:38:13.646Z,10.6
2017-11-08T10:39:36.187Z,10.59
2017-11-08T10:40:58.524Z,10.51
2017-11-08T10:42:21.009Z,10.44
2017-11-08T10:43:43.250Z,10.2
2017-11-08T10:45:05.114Z,10.22
2017-11-08T10:46:27.706Z,10.26
2017-11-08T10:47:49.579Z,10.22
2017-11-08T10:49:12.236Z,10.17
2017-11-08T10:50:34.492Z,10.18
2017-11-08T10:51:57.120Z,10.27
2017-11-08T10:53:18.310Z,10.27
2017-11-08T10:54:40.829Z,10.32
2017-11-08T10:56:03.361Z,10.4
2017-11-08T10:57:24.884Z,10.4
2017-11-08T10:58:47.566Z,10.41
2017-11-08T11:00:09.437Z,10.53
2017-11-08T11:01:31.639Z,10.44
2017-11-08T11:02:54.078Z,10.53
2017-11-08T11:04:16.621Z,10.47
2017-11-08T11:05:38.839Z,10.55
2017-11-08T11:07:01.430Z,10.67
2017-11-08T11:08:23.632Z,10.63
2017-11-08T11:09:45.489Z,10.6
2017-11-08T11:11:07.689Z,10.66
2017-11-08T11:12:29.691Z,10.52
2017-11-08T11:13:51.913Z,10.7
2017-11-08T11:15:14.100Z,10.61
2017-11-08T11:16:36.331Z,10.67
2017-11-08T11:17:58.900Z,10.61
2017-11-08T11:19:21.470Z,10.44
2017-11-08T11:20:43.312Z,10.52
2017-11-08T11:22:04.872Z,10.66
2017-11-08T11:23:26.792Z,10.63
2017-11-08T11:24:47.962Z,10.7
2017-11-08T11:26:09.482Z,10.89
2017-11-08T11:27:31.769Z,10.92
2017-11-08T11:28:53.983Z,10.92
2017-11-08T11:30:16.507Z,11.03
2017-11-08T11:31:38.026Z,11.19
2017-11-08T11:33:00.209Z,11.21
2017-11-08T11:34:22.398Z,11.29
2017-11-08T11:35:44.583Z,11.47
2017-11-08T11:37:06.100Z,11.55
2017-11-08T11:38:27.972Z,11.51
2017-11-08T11:39:49.855Z,11.4
2017-11-08T11:41:12.401Z,11.46
2017-11-08T11:42:34.310Z,11.55
2017-11-08T11:43:56.239Z,11.44
2017-11-08T11:45:18.433Z,11.46
2017-11-08T11:46:39.942Z,11.51
2017-11-08T11:48:02.157Z,11.67
2017-11-08T11:49:24.002Z,11.62
2017-11-08T11:50:45.393Z,11.42
2017-11-08T11:52:06.933Z,11.39
2017-11-08T11:53:28.793Z,11.29
2017-11-08T11:54:50.993Z,11.4
2017-11-08T11:56:12.838Z,11.47
2017-11-08T11:57:35.027Z,11.57
2017-11-08T11:58:57.594Z,11.58
2017-11-08T12:00:19.801Z,11.73
2017-11-08T12:01:41.717Z,11.65
2017-11-08T12:03:04.542Z,11.6
2017-11-08T12:04:26.187Z,11.61
2017-11-08T12:05:48.378Z,11.51
2017-11-08T12:07:09.917Z,11.47
2017-11-08T12:08:32.107Z,11.46
2017-11-08T12:09:53.617Z,11.54
2017-11-08T12:11:15.831Z,11.58
2017-11-08T12:12:37.671Z,11.62
2017-11-08T12:13:59.543Z,11.7
2017-11-08T12:15:21.073Z,11.69
2017-11-08T12:16:43.332Z,11.57
2017-11-08T12:18:05.197Z,11.35
2017-11-08T12:19:26.736Z,11.17
2017-11-08T12:20:48.999Z,11.21
2017-11-08T12:22:10.856Z,11.18
2017-11-08T12:23:32.682Z,11.28
2017-11-08T12:24:53.918Z,11.18
2017-11-08T12:26:15.771Z,11.29
2017-11-08T12:27:37.973Z,11.25
2017-11-08T12:29:00.253Z,11.24
2017-11-08T12:30:22.303Z,11.04
2017-11-08T12:31:44.480Z,11
2017-11-08T12:33:06.752Z,10.92
2017-11-08T12:34:28.965Z,10.91
2017-11-08T12:35:50.994Z,10.74
2017-11-08T12:37:13.206Z,10.66
2017-11-08T12:38:34.761Z,10.63
2017-11-08T12:39:57.371Z,10.55
2017-11-08T12:41:19.060Z,10.6
2017-11-08T12:42:40.944Z,10.61
2017-11-08T12:44:03.151Z,10.56
2017-11-08T12:45:25.043Z,10.55
2017-11-08T12:46:47.153Z,10.33
2017-11-08T12:48:09.667Z,10.4
2017-11-08T12:49:31.189Z,10.27
2017-11-08T12:50:53.713Z,10.38
2017-11-08T12:52:15.227Z,10.29
2017-11-08T12:53:36.509Z,10.44
2017-11-08T12:54:58.708Z,10.34
2017-11-08T12:56:20.555Z,10.29
2017-11-08T12:57:42.092Z,10.32
2017-11-08T12:59:04.615Z,10.38
2017-11-08T13:00:27.159Z,10.29
2017-11-08T13:01:49.692Z,10.36
2017-11-08T13:03:11.360Z,10.3
2017-11-08T13:04:33.542Z,10.2
2017-11-08T13:05:55.734Z,10.22
2017-11-08T13:07:18.266Z,10.23
2017-11-08T13:08:39.825Z,10.18
2017-11-08T13:10:02.099Z,10.26
2017-11-08T13:11:24.294Z,10.27
2017-11-08T13:12:46.924Z,10.38
2017-11-08T13:14:08.785Z,10.18
2017-11-08T13:15:30.992Z,10.2
2017-11-08T13:16:52.985Z,10.17
2017-11-08T13:18:15.194Z,10.14
2017-11-08T13:19:37.406Z,10.14
2017-11-08T13:20:59.606Z,10.18
2017-11-08T13:22:21.802Z,10.12
2017-11-08T13:23:43.775Z,10.14
2017-11-08T13:25:06.340Z,10.17
2017-11-08T13:26:28.062Z,10.07
2017-11-08T13:27:50.256Z,10.11
2017-11-08T13:29:12.784Z,10.18
2017-11-08T13:30:35.246Z,10.17
2017-11-08T13:31:56.799Z,10.12
2017-11-08T13:33:18.350Z,10.23
2017-11-08T13:34:40.888Z,10.15
2017-11-08T13:36:02.748Z,10.15
2017-11-08T13:37:24.328Z,10.14
2017-11-08T13:38:46.523Z,10.17
2017-11-08T13:40:08.353Z,10.17
2017-11-08T13:41:29.887Z,10.2
2017-11-08T13:42:51.752Z,10.2
2017-11-08T13:44:13.965Z,10.18
2017-11-08T13:45:35.829Z,10.23
2017-11-08T13:46:57.665Z,10.25
2017-11-08T13:48:19.858Z,10.29
2017-11-08T13:49:42.408Z,10.27
2017-11-08T13:51:04.353Z,10.32
2017-11-08T13:52:26.888Z,10.25
2017-11-08T13:53:49.085Z,10.2
2017-11-08T13:55:10.986Z,10.15
2017-11-08T13:56:33.332Z,10.17
2017-11-08T13:57:55.334Z,10.26
2017-11-08T13:59:17.654Z,10.18
2017-11-08T14:00:39.554Z,10.15
2017-11-08T14:02:01.416Z,10.17
2017-11-08T14:03:22.923Z,10.23
2017-11-08T14:04:45.101Z,10.11
2017-11-08T14:06:06.940Z,10.09
2017-11-08T14:07:29.481Z,10.04
2017-11-08T14:08:51.699Z,10.02
2017-11-08T14:10:13.926Z,9.99
2017-11-08T14:11:36.128Z,10.14
2017-11-08T14:12:58.323Z,10.14
2017-11-08T14:14:20.318Z,10.05
2017-11-08T14:15:42.860Z,10.12
2017-11-08T14:17:04.402Z,10.09
2017-11-08T14:18:26.292Z,10.08
2017-11-08T14:19:48.165Z,10.11
2017-11-08T14:21:09.688Z,10.09
2017-11-08T14:22:31.598Z,10.15
2017-11-08T14:23:53.515Z,10.14
2017-11-08T14:25:15.063Z,10.12
2017-11-08T14:26:36.603Z,10.08
2017-11-08T14:27:59.106Z,10.22
2017-11-08T14:29:21.639Z,10.15
2017-11-08T14:30:43.827Z,10.18
2017-11-08T14:32:06.377Z,10.2
2017-11-08T14:33:27.881Z,10.18
2017-11-08T14:34:50.404Z,10.2
2017-11-08T14:36:12.265Z,10.22
2017-11-08T14:37:34.145Z,10.33
2017-11-08T14:38:56.204Z,10.4
2017-11-08T14:40:17.733Z,10.38
2017-11-08T14:41:39.309Z,10.45
2017-11-08T14:43:01.527Z,10.4
2017-11-08T14:44:23.393Z,10.4
2017-11-08T14:45:45.243Z,10.36
2017-11-08T14:47:07.896Z,10.4
2017-11-08T14:48:30.141Z,10.33
2017-11-08T14:49:52.096Z,10.33
2017-11-08T14:51:13.295Z,10.38
2017-11-08T14:52:35.523Z,10.34
2017-11-08T14:53:57.423Z,10.33
2017-11-08T14:55:19.346Z,10.14
2017-11-08T14:56:41.555Z,10.15
2017-11-08T14:58:03.778Z,10.18
2017-11-08T14:59:26.044Z,10.2
2017-11-08T15:00:47.557Z,10.14
2017-11-08T15:02:09.137Z,10.09
2017-11-08T15:03:31.315Z,10.15
2017-11-08T15:04:53.645Z,10.14
2017-11-08T15:06:15.497Z,10.09
2017-11-08T15:07:37.372Z,10.09
2017-11-08T15:08:59.912Z,9.99
2017-11-08T15:10:22.120Z,9.96
2017-11-08T15:11:44.019Z,9.99
2017-11-08T15:13:05.898Z,9.89
2017-11-08T15:14:27.757Z,9.96
2017-11-08T15:15:49.637Z,9.86
2017-11-08T15:17:10.853Z,9.89
2017-11-08T15:18:32.739Z,9.86
2017-11-08T15:19:55.458Z,9.86
2017-11-08T15:21:17.643Z,9.89
2017-11-08T15:22:39.889Z,9.84
2017-11-08T15:24:02.475Z,9.89
2017-11-08T15:25:25.048Z,9.91
2017-11-08T15:26:47.670Z,9.9
2017-11-08T15:28:09.875Z,9.97
2017-11-08T15:29:32.078Z,9.91
2017-11-08T15:30:53.269Z,9.91
2017-11-08T15:32:14.857Z,9.96
2017-11-08T15:33:37.441Z,9.87
2017-11-08T15:34:59.308Z,9.81
2017-11-08T15:36:21.210Z,9.96
2017-11-08T15:37:43.101Z,9.97
2017-11-08T15:39:05.638Z,9.86
2017-11-08T15:40:27.227Z,9.96
2017-11-08T15:41:49.502Z,9.9
2017-11-08T15:43:12.028Z,9.94
2017-11-08T15:44:33.909Z,9.9
2017-11-08T15:45:55.811Z,9.81
2017-11-08T15:47:18.103Z,9.87
2017-11-08T15:48:40.318Z,9.97
2017-11-08T15:50:02.200Z,9.9
2017-11-08T15:51:23.727Z,9.81
2017-11-08T15:52:46.287Z,9.86
2017-11-08T15:54:07.852Z,9.83
2017-11-08T15:55:29.789Z,9.74
2017-11-08T15:56:52.007Z,9.69
2017-11-08T15:58:13.887Z,9.71
2017-11-08T15:59:36.457Z,9.68
2017-11-08T16:00:58.117Z,9.72
2017-11-08T16:02:20.398Z,9.65
2017-11-08T16:03:42.589Z,9.76
2017-11-08T16:05:04.820Z,9.75
2017-11-08T16:06:26.690Z,9.79
2017-11-08T16:07:49.230Z,9.66
2017-11-08T16:09:11.449Z,9.61
2017-11-08T16:10:33.647Z,9.66
2017-11-08T16:11:55.618Z,9.74
2017-11-08T16:13:17.511Z,9.68
2017-11-08T16:14:39.323Z,9.66
2017-11-08T16:16:01.561Z,9.6
2017-11-08T16:17:23.494Z,9.61
2017-11-08T16:18:46.052Z,9.58
2017-11-08T16:20:07.594Z,9.58
2017-11-08T16:21:29.890Z,9.6
2017-11-08T16:22:51.772Z,9.53
2017-11-08T16:24:13.651Z,9.6
2017-11-08T16:25:35.221Z,9.6
2017-11-08T16:26:57.777Z,9.6
2017-11-08T16:28:20.112Z,9.6
2017-11-08T16:29:42.319Z,9.57
2017-11-08T16:31:04.537Z,9.57
2017-11-08T16:32:26.805Z,9.6
2017-11-08T16:33:48.688Z,9.57
2017-11-08T16:35:10.542Z,9.61
2017-11-08T16:36:33.106Z,9.58
2017-11-08T16:37:55.320Z,9.66
2017-11-08T16:39:17.547Z,9.6
2017-11-08T16:40:39.427Z,9.6
2017-11-08T16:42:01.426Z,9.6
2017-11-08T16:43:23.668Z,9.57
2017-11-08T16:44:45.875Z,9.54
2017-11-08T16:46:07.750Z,9.58
2017-11-08T16:47:29.977Z,9.64
2017-11-08T16:48:51.515Z,9.56
2017-11-08T16:50:13.740Z,9.56
2017-11-08T16:51:35.984Z,9.6
2017-11-08T16:52:58.550Z,9.57
2017-11-08T16:54:20.770Z,9.56
2017-11-08T16:55:42.299Z,9.61
2017-11-08T16:57:04.872Z,9.56
2017-11-08T16:58:26.778Z,9.58
2017-11-08T16:59:48.638Z,9.58
2017-11-08T17:01:10.852Z,9.58
2017-11-08T17:02:33.420Z,9.61
2017-11-08T17:03:55.282Z,9.56
2017-11-08T17:05:17.456Z,9.61
2017-11-08T17:06:39.391Z,9.58
2017-11-08T17:08:01.271Z,9.56
2017-11-08T17:09:23.485Z,9.6
2017-11-08T17:10:45.742Z,9.56
2017-11-08T17:12:07.950Z,9.58
2017-11-08T17:13:29.861Z,9.57
2017-11-08T17:14:52.416Z,9.56
2017-11-08T17:16:14.296Z,9.5
2017-11-08T17:17:36.581Z,9.5
2017-11-08T17:18:59.161Z,9.42
2017-11-08T17:20:21.543Z,9.47
2017-11-08T17:21:44.120Z,9.43
2017-11-08T17:23:06.036Z,9.54
2017-11-08T17:24:28.246Z,9.53
2017-11-08T17:25:50.797Z,9.47
2017-11-08T17:27:13.027Z,9.39
2017-11-08T17:28:35.618Z,9.43
2017-11-08T17:29:57.819Z,9.36
2017-11-08T17:31:20.028Z,9.43
2017-11-08T17:32:41.907Z,9.39
2017-11-08T17:34:03.792Z,9.42
2017-11-08T17:35:25.408Z,9.46
2017-11-08T17:36:47.615Z,9.43
2017-11-08T17:38:10.428Z,9.53
2017-11-08T17:39:32.987Z,9.47
2017-11-08T17:40:54.928Z,9.46
2017-11-08T17:42:17.173Z,9.39
2017-11-08T17:43:39.418Z,9.54
2017-11-08T17:45:00.967Z,9.54
2017-11-08T17:46:23.540Z,9.64
2017-11-08T17:47:46.002Z,9.64
2017-11-08T17:49:08.222Z,9.58
2017-11-08T17:50:30.111Z,9.6
2017-11-08T17:51:51.988Z,9.54
2017-11-08T17:53:14.447Z,9.65
2017-11-08T17:54:36.897Z,9.66
2017-11-08T17:55:59.101Z,9.58
2017-11-08T17:57:21.399Z,9.58
2017-11-08T17:58:43.954Z,9.58
2017-11-08T18:00:06.169Z,9.61
2017-11-08T18:01:28.372Z,9.61
2017-11-08T18:02:50.897Z,9.57
2017-11-08T18:04:12.759Z,9.64
2017-11-08T18:05:34.641Z,9.58